createdAt,value
2023-08-26T00:01:53.991Z,57.60
2023-08-26T00:04:22.947Z,57.71
2023-08-26T00:06:50.813Z,58.60
2023-08-26T00:09:18.578Z,59.98
2023-08-26T00:11:46.307Z,60.79
2023-08-26T00:14:14.122Z,61.66
2023-08-26T00:16:41.888Z,61.96
2023-08-26T00:19:09.660Z,62.39
2023-08-26T00:21:38.828Z,62.80
2023-08-26T00:24:07.230Z,63.32
2023-08-26T00:26:35.406Z,63.74
2023-08-26T00:29:03.239Z,63.91
2023-08-26T00:31:31.110Z,64.01
2023-08-26T00:34:03.377Z,64.33
2023-08-26T00:36:32.069Z,64.90
2023-08-26T00:39:00.257Z,65.02
2023-08-26T00:41:28.124Z,65.17
2023-08-26T00:43:56.574Z,65.16
2023-08-26T00:46:24.827Z,65.48
2023-08-26T00:48:52.708Z,65.75
2023-08-26T00:51:21.829Z,65.99
2023-08-26T00:53:50.311Z,66.20
2023-08-26T00:56:18.373Z,66.28
2023-08-26T00:58:46.587Z,66.49
2023-08-26T01:01:15.852Z,66.77
2023-08-26T01:03:43.720Z,67.26
2023-08-26T01:06:12.551Z,67.49
2023-08-26T01:08:40.409Z,67.28
2023-08-26T01:11:56.684Z,67.22
2023-08-26T01:14:57.387Z,67.30
2023-08-26T01:17:26.785Z,68.15
2023-08-26T01:19:58.107Z,68.22
2023-08-26T01:22:27.727Z,68.06
2023-08-26T01:24:56.651Z,68.48
2023-08-26T01:27:24.456Z,68.60
2023-08-26T01:29:52.227Z,68.97
2023-08-26T01:32:44.146Z,68.38
2023-08-26T01:35:17.169Z,69.02
2023-08-26T01:37:47.169Z,69.38
2023-08-26T01:40:16.274Z,69.69
2023-08-26T01:42:45.614Z,69.70
2023-08-26T01:45:13.819Z,69.86
2023-08-26T01:47:41.657Z,70.09
2023-08-26T01:50:10.039Z,69.99
2023-08-26T01:52:38.398Z,70.11
2023-08-26T01:55:06.435Z,70.27
2023-08-26T01:57:34.281Z,70.19
2023-08-26T02:00:04.624Z,70.12
2023-08-26T02:02:43.944Z,70.50
2023-08-26T02:05:11.777Z,70.42
2023-08-26T02:07:39.606Z,70.62
2023-08-26T02:10:08.172Z,70.43
2023-08-26T02:12:36.007Z,70.84
2023-08-26T02:15:04.826Z,70.85
2023-08-26T02:17:35.372Z,70.57
2023-08-26T02:20:04.516Z,70.93
2023-08-26T02:22:32.340Z,70.99
2023-08-26T02:25:00.782Z,71.10
2023-08-26T02:27:28.452Z,70.92
2023-08-26T02:29:56.278Z,71.35
2023-08-26T02:32:24.054Z,71.10
2023-08-26T02:34:51.844Z,71.16
2023-08-26T02:37:19.574Z,71.48
2023-08-26T02:39:47.335Z,71.55
2023-08-26T02:42:15.076Z,71.70
2023-08-26T02:44:42.865Z,71.74
2023-08-26T02:47:10.582Z,71.81
2023-08-26T02:49:38.373Z,71.71
2023-08-26T02:52:06.199Z,71.66
2023-08-26T02:54:34.105Z,71.61
2023-08-26T02:57:02.056Z,72.07
2023-08-26T02:59:30.868Z,72.05
2023-08-26T03:02:07.230Z,71.55
2023-08-26T03:04:35.416Z,72.20
2023-08-26T03:07:03.369Z,71.90
2023-08-26T03:09:31.215Z,72.27
2023-08-26T03:12:00.068Z,72.15
2023-08-26T03:14:28.844Z,72.18
2023-08-26T03:16:56.715Z,72.15
2023-08-26T03:19:24.633Z,71.83
2023-08-26T03:21:52.417Z,72.06
2023-08-26T03:24:20.623Z,71.97
2023-08-26T03:26:50.182Z,72.22
2023-08-26T03:29:17.937Z,71.86
2023-08-26T03:31:45.722Z,71.99
2023-08-26T03:34:17.957Z,71.78
2023-08-26T03:36:46.039Z,71.20
2023-08-26T03:39:13.872Z,71.45
2023-08-26T03:41:41.951Z,71.28
2023-08-26T03:44:09.764Z,71.59
2023-08-26T03:46:37.460Z,71.47
2023-08-26T03:49:05.296Z,71.45
2023-08-26T03:51:33.278Z,71.58
2023-08-26T03:54:01.090Z,71.82
2023-08-26T03:56:29.526Z,71.59
2023-08-26T03:58:58.362Z,71.71
2023-08-26T04:01:26.367Z,72.11
2023-08-26T04:03:54.372Z,71.75
2023-08-26T04:06:22.211Z,72.03
2023-08-26T04:08:50.207Z,71.56
2023-08-26T04:11:18.750Z,71.90
2023-08-26T04:13:46.821Z,71.56
2023-08-26T04:16:16.811Z,71.47
2023-08-26T04:18:44.686Z,71.50
2023-08-26T04:21:12.603Z,71.34
2023-08-26T04:23:40.476Z,71.10
2023-08-26T04:26:09.331Z,71.36
2023-08-26T04:28:37.087Z,70.90
2023-08-26T04:31:05.070Z,71.31
2023-08-26T04:33:32.792Z,70.89
2023-08-26T04:36:00.583Z,71.18
2023-08-26T04:38:28.387Z,70.88
2023-08-26T04:40:56.244Z,71.26
2023-08-26T04:43:24.107Z,71.03
2023-08-26T04:45:53.747Z,71.10
2023-08-26T04:48:21.772Z,71.07
2023-08-26T04:50:49.608Z,71.38
2023-08-26T04:53:18.289Z,70.76
2023-08-26T04:55:52.130Z,70.92
2023-08-26T04:58:20.093Z,70.73
2023-08-26T05:00:48.268Z,71.11
2023-08-26T05:03:16.740Z,71.18
2023-08-26T05:05:45.719Z,71.02
2023-08-26T05:08:13.663Z,71.54
2023-08-26T05:10:42.708Z,71.33
2023-08-26T05:13:11.337Z,71.35
2023-08-26T05:15:39.073Z,71.61
2023-08-26T05:18:06.970Z,71.61
2023-08-26T05:20:34.845Z,71.85
2023-08-26T05:23:03.075Z,72.14
2023-08-26T05:25:31.015Z,72.25
2023-08-26T05:27:59.650Z,72.18
2023-08-26T05:30:28.072Z,72.24
2023-08-26T05:32:55.952Z,72.59
2023-08-26T05:35:25.256Z,72.54
2023-08-26T05:37:53.167Z,72.74
2023-08-26T05:40:27.733Z,72.43
2023-08-26T05:42:59.875Z,72.38
2023-08-26T05:45:29.186Z,72.41
2023-08-26T05:47:57.312Z,72.62
2023-08-26T05:50:25.393Z,72.33
2023-08-26T05:52:53.351Z,72.58
2023-08-26T05:55:22.132Z,72.94
2023-08-26T05:57:52.132Z,73.01
2023-08-26T06:00:19.961Z,72.97
2023-08-26T06:02:51.057Z,72.76
2023-08-26T06:05:20.330Z,72.64
2023-08-26T06:07:53.401Z,72.48
2023-08-26T06:10:24.422Z,73.10
2023-08-26T06:12:52.277Z,73.05
2023-08-26T06:15:22.550Z,73.34
2023-08-26T06:17:50.888Z,73.50
2023-08-26T06:20:27.132Z,73.91
2023-08-26T06:22:54.886Z,73.87
2023-08-26T06:25:22.799Z,73.76
2023-08-26T06:27:50.496Z,73.95
2023-08-26T06:30:18.760Z,73.74
2023-08-26T06:32:47.084Z,73.95
2023-08-26T06:35:16.538Z,74.52
2023-08-26T06:37:44.343Z,74.66
2023-08-26T06:40:13.255Z,74.69
2023-08-26T06:42:42.635Z,74.61
2023-08-26T06:45:16.295Z,73.91
2023-08-26T06:47:46.246Z,73.69
2023-08-26T06:50:14.683Z,72.92
2023-08-26T06:52:42.446Z,72.81
2023-08-26T06:55:11.441Z,72.34
2023-08-26T06:57:39.265Z,71.88
2023-08-26T07:00:09.774Z,72.03
2023-08-26T07:02:37.988Z,71.23
2023-08-26T07:05:06.987Z,71.23
2023-08-26T07:07:34.790Z,71.10
2023-08-26T07:10:03.045Z,71.38
2023-08-26T07:12:32.405Z,71.65
2023-08-26T07:15:00.278Z,71.45
2023-08-26T07:17:28.303Z,71.25
2023-08-26T07:19:56.124Z,71.24
2023-08-26T07:22:29.649Z,71.35
2023-08-26T07:24:58.052Z,71.69
2023-08-26T07:27:25.838Z,71.64
2023-08-26T07:29:53.660Z,71.14
2023-08-26T07:32:21.483Z,71.49
2023-08-26T07:34:53.201Z,71.32
2023-08-26T07:37:21.006Z,71.34
2023-08-26T07:39:50.967Z,71.01
2023-08-26T07:42:18.793Z,71.04
2023-08-26T07:44:46.578Z,70.87
2023-08-26T07:47:14.448Z,70.95
2023-08-26T07:49:42.435Z,71.03
2023-08-26T07:52:10.451Z,71.21
2023-08-26T07:54:38.258Z,71.21
2023-08-26T07:57:06.064Z,71.14
2023-08-26T07:59:34.344Z,71.19
2023-08-26T08:02:02.154Z,71.43
2023-08-26T08:04:30.398Z,71.84
2023-08-26T08:06:58.215Z,71.66
2023-08-26T08:09:26.161Z,71.78
2023-08-26T08:11:54.165Z,72.12
2023-08-26T08:14:22.005Z,71.41
2023-08-26T08:16:49.751Z,71.43
2023-08-26T08:19:17.587Z,70.58
2023-08-26T08:21:45.278Z,71.46
2023-08-26T08:24:13.064Z,71.97
2023-08-26T08:26:44.685Z,72.15
2023-08-26T08:29:12.516Z,72.25
2023-08-26T08:31:40.297Z,72.22
2023-08-26T08:34:08.211Z,72.09
2023-08-26T08:36:35.981Z,71.82
2023-08-26T08:39:04.465Z,71.11
2023-08-26T08:41:38.867Z,71.02
2023-08-26T08:44:14.055Z,70.24
2023-08-26T08:46:42.922Z,69.80
2023-08-26T08:49:12.048Z,69.35
2023-08-26T08:51:40.730Z,68.85
2023-08-26T08:54:08.909Z,68.29
2023-08-26T08:56:37.749Z,67.35
2023-08-26T08:59:10.349Z,66.99
2023-08-26T09:01:41.725Z,66.41
2023-08-26T09:04:10.638Z,65.78
2023-08-26T09:06:39.317Z,64.60
2023-08-26T09:09:22.790Z,63.95
2023-08-26T09:12:01.912Z,63.69
2023-08-26T09:14:29.785Z,63.02
2023-08-26T09:16:58.030Z,62.55
2023-08-26T09:19:25.808Z,61.61
2023-08-26T09:21:55.175Z,60.57
2023-08-26T09:24:23.291Z,59.92
2023-08-26T09:27:00.785Z,58.13
2023-08-26T09:29:28.786Z,58.75
2023-08-26T09:31:59.560Z,58.31
2023-08-26T09:34:31.531Z,58.18
2023-08-26T09:37:00.282Z,57.40
2023-08-26T09:39:28.939Z,56.61
2023-08-26T09:41:58.220Z,55.74
2023-08-26T09:44:27.622Z,54.84
2023-08-26T09:46:57.926Z,54.47
2023-08-26T09:49:25.793Z,54.37
2023-08-26T09:51:54.956Z,53.19
2023-08-26T09:54:23.146Z,52.67
2023-08-26T09:56:51.159Z,52.16
2023-08-26T09:59:19.806Z,51.76
2023-08-26T10:01:48.636Z,51.55
2023-08-26T10:04:27.280Z,50.95
2023-08-26T10:07:00.225Z,50.84
2023-08-26T10:10:10.293Z,50.44
2023-08-26T10:12:42.807Z,50.63
2023-08-26T10:15:18.181Z,50.41
2023-08-26T10:17:49.703Z,49.88
2023-08-26T10:20:17.776Z,49.33
2023-08-26T10:22:46.070Z,49.70
2023-08-26T10:25:15.155Z,49.72
2023-08-26T10:27:43.474Z,49.67
2023-08-26T10:30:11.891Z,49.49
2023-08-26T10:32:44.510Z,48.98
2023-08-26T10:35:14.794Z,49.35
2023-08-26T10:37:42.574Z,49.64
2023-08-26T10:40:13.961Z,49.23
2023-08-26T10:43:06.573Z,49.18
2023-08-26T10:45:34.647Z,49.33
2023-08-26T10:48:02.510Z,49.20
2023-08-26T10:50:31.089Z,49.54
2023-08-26T10:53:00.989Z,49.22
2023-08-26T10:55:34.146Z,49.16
2023-08-26T10:58:22.174Z,49.38
2023-08-26T11:00:53.205Z,49.24
2023-08-26T11:03:26.832Z,49.27
2023-08-26T11:06:05.868Z,48.68
2023-08-26T11:08:37.070Z,49.26
2023-08-26T11:11:04.896Z,50.61
2023-08-26T11:13:33.528Z,50.37
2023-08-26T11:16:01.355Z,49.97
2023-08-26T11:18:30.292Z,49.16
2023-08-26T11:21:04.338Z,49.23
2023-08-26T11:23:34.016Z,49.83
2023-08-26T11:26:02.328Z,49.83
2023-08-26T11:28:32.764Z,49.61
2023-08-26T11:31:01.453Z,49.72
2023-08-26T11:33:29.482Z,49.55
2023-08-26T11:36:08.105Z,49.30
2023-08-26T11:38:38.724Z,49.08
2023-08-26T11:41:08.364Z,49.03
2023-08-26T11:43:37.732Z,49.51
2023-08-26T11:46:07.443Z,49.59
2023-08-26T11:48:38.085Z,50.19
2023-08-26T11:51:07.147Z,50.44
2023-08-26T11:53:38.199Z,50.37
2023-08-26T11:56:06.635Z,50.70
2023-08-26T11:58:38.801Z,50.27
2023-08-26T12:01:09.041Z,50.68
2023-08-26T12:03:45.597Z,50.69
2023-08-26T12:06:15.812Z,50.72
2023-08-26T12:08:45.809Z,51.13
2023-08-26T12:11:16.934Z,51.23
2023-08-26T12:13:45.459Z,50.95
2023-08-26T12:16:17.026Z,51.17
2023-08-26T12:18:45.112Z,50.88
2023-08-26T12:21:12.867Z,50.86
2023-08-26T12:23:42.381Z,50.50
2023-08-26T12:26:14.106Z,50.62
2023-08-26T12:28:42.056Z,50.36
2023-08-26T12:31:10.715Z,50.29
2023-08-26T12:33:53.725Z,50.18
2023-08-26T12:36:26.494Z,50.26
2023-08-26T12:38:54.283Z,50.38
2023-08-26T12:41:22.302Z,50.06
2023-08-26T12:43:52.046Z,49.85
2023-08-26T12:46:19.988Z,49.93
2023-08-26T12:48:54.978Z,50.11
2023-08-26T12:51:24.675Z,50.36
2023-08-26T12:53:52.791Z,50.41
2023-08-26T12:56:22.864Z,50.16
2023-08-26T12:59:03.624Z,49.91
2023-08-26T13:01:31.995Z,50.00
2023-08-26T13:04:00.653Z,49.55
2023-08-26T13:06:28.895Z,49.15
2023-08-26T13:08:56.670Z,49.25
2023-08-26T13:11:24.376Z,49.16
2023-08-26T13:13:52.096Z,49.40
2023-08-26T13:16:23.498Z,49.44
2023-08-26T13:18:51.365Z,49.70
2023-08-26T13:21:19.138Z,49.29
2023-08-26T13:23:47.987Z,49.27
2023-08-26T13:26:15.866Z,49.08
2023-08-26T13:28:44.839Z,48.71
2023-08-26T13:31:13.321Z,48.51
2023-08-26T13:33:41.446Z,48.24
2023-08-26T13:36:09.231Z,48.09
2023-08-26T13:38:37.048Z,48.09
2023-08-26T13:41:05.336Z,48.48
2023-08-26T13:43:33.095Z,48.72
2023-08-26T13:46:00.934Z,48.97
2023-08-26T13:48:29.604Z,48.82
2023-08-26T13:50:57.858Z,48.48
2023-08-26T13:53:25.693Z,48.37
2023-08-26T13:55:58.650Z,48.69
2023-08-26T13:58:27.113Z,48.35
2023-08-26T14:00:58.417Z,48.12
2023-08-26T14:03:27.596Z,48.12
2023-08-26T14:05:55.460Z,48.31
2023-08-26T14:08:24.657Z,48.59
2023-08-26T14:10:54.967Z,48.30
2023-08-26T14:13:22.750Z,48.73
2023-08-26T14:15:50.510Z,48.09
2023-08-26T14:18:20.329Z,48.16
2023-08-26T14:20:48.189Z,48.21
2023-08-26T14:23:15.984Z,47.77
2023-08-26T14:25:44.854Z,47.67
2023-08-26T14:28:13.917Z,47.46
2023-08-26T14:30:41.792Z,47.28
2023-08-26T14:33:09.647Z,46.88
2023-08-26T14:35:38.232Z,46.89
2023-08-26T14:38:05.982Z,46.55
2023-08-26T14:40:33.810Z,46.73
2023-08-26T14:43:01.566Z,46.63
2023-08-26T14:45:29.414Z,46.58
2023-08-26T14:47:57.687Z,46.57
2023-08-26T14:50:25.889Z,46.63
2023-08-26T14:52:53.667Z,46.52
2023-08-26T14:55:21.538Z,45.95
2023-08-26T14:57:49.440Z,45.90
2023-08-26T15:00:17.398Z,45.79
2023-08-26T15:02:45.441Z,45.85
2023-08-26T15:05:15.557Z,46.09
2023-08-26T15:07:43.443Z,45.96
2023-08-26T15:10:11.259Z,45.92
2023-08-26T15:12:39.183Z,45.52
2023-08-26T15:15:07.769Z,45.67
2023-08-26T15:17:35.671Z,45.91
2023-08-26T15:20:04.215Z,45.44
2023-08-26T15:22:31.939Z,45.63
2023-08-26T15:24:59.762Z,45.72
2023-08-26T15:27:27.476Z,45.84
2023-08-26T15:29:55.229Z,45.69
2023-08-26T15:32:23.021Z,45.75
2023-08-26T15:34:50.803Z,45.78
2023-08-26T15:37:18.767Z,45.81
2023-08-26T15:39:46.557Z,45.96
2023-08-26T15:42:14.364Z,45.74
2023-08-26T15:44:42.240Z,45.65
2023-08-26T15:47:10.001Z,45.42
2023-08-26T15:49:38.375Z,45.33
2023-08-26T15:52:07.003Z,45.40
2023-08-26T15:54:34.815Z,45.69
2023-08-26T15:57:02.561Z,45.54
2023-08-26T15:59:30.482Z,45.42
2023-08-26T16:01:58.872Z,45.26
2023-08-26T16:04:26.708Z,45.44
2023-08-26T16:06:54.492Z,45.64
2023-08-26T16:09:22.763Z,45.61
2023-08-26T16:11:50.536Z,45.36
2023-08-26T16:14:18.254Z,45.44
2023-08-26T16:16:46.228Z,45.04
2023-08-26T16:19:14.760Z,45.54
2023-08-26T16:21:42.514Z,45.76
2023-08-26T16:24:11.250Z,45.79
2023-08-26T16:26:40.285Z,45.93
2023-08-26T16:29:08.060Z,45.74
2023-08-26T16:31:35.865Z,45.50
2023-08-26T16:34:03.774Z,45.74
2023-08-26T16:36:31.462Z,45.60
2023-08-26T16:38:59.901Z,45.45
2023-08-26T16:41:27.764Z,45.54
2023-08-26T16:43:55.488Z,45.39
2023-08-26T16:46:23.247Z,45.56
2023-08-26T16:48:50.979Z,45.78
2023-08-26T16:51:18.745Z,45.85
2023-08-26T16:53:46.613Z,45.72
2023-08-26T16:56:14.384Z,45.84
2023-08-26T16:58:42.331Z,45.91
2023-08-26T17:01:10.218Z,45.69
2023-08-26T17:03:38.212Z,45.70
2023-08-26T17:06:06.503Z,45.76
2023-08-26T17:08:34.315Z,45.76
2023-08-26T17:11:05.793Z,46.16
2023-08-26T17:13:33.826Z,46.43
2023-08-26T17:16:03.747Z,46.35
2023-08-26T17:18:31.489Z,46.37
2023-08-26T17:20:59.355Z,46.60
2023-08-26T17:23:27.509Z,46.76
2023-08-26T17:25:55.285Z,47.12
2023-08-26T17:28:23.099Z,47.00
2023-08-26T17:30:51.039Z,46.96
2023-08-26T17:33:19.012Z,47.08
2023-08-26T17:35:46.822Z,47.25
2023-08-26T17:38:19.976Z,47.28
2023-08-26T17:40:57.603Z,47.29
2023-08-26T17:43:25.461Z,47.39
2023-08-26T17:45:53.636Z,47.71
2023-08-26T17:48:21.453Z,47.60
2023-08-26T17:50:53.511Z,47.82
2023-08-26T17:53:23.443Z,47.98
2023-08-26T17:55:54.614Z,48.09
2023-08-26T17:58:22.675Z,48.20
2023-08-26T18:00:50.565Z,48.07
2023-08-26T18:03:18.446Z,48.35
2023-08-26T18:05:46.461Z,48.47
2023-08-26T18:08:14.477Z,48.83
2023-08-26T18:10:42.190Z,48.82
2023-08-26T18:13:09.832Z,49.17
2023-08-26T18:15:40.165Z,48.96
2023-08-26T18:18:08.989Z,48.85
2023-08-26T18:20:37.435Z,49.16
2023-08-26T18:23:05.508Z,49.09
2023-08-26T18:25:33.259Z,49.59
2023-08-26T18:28:01.046Z,49.61
2023-08-26T18:30:28.777Z,49.85
2023-08-26T18:32:56.965Z,49.69
2023-08-26T18:35:24.991Z,49.87
2023-08-26T18:37:52.757Z,49.63
2023-08-26T18:40:22.797Z,49.88
2023-08-26T18:42:51.775Z,50.19
2023-08-26T18:45:19.482Z,49.73
2023-08-26T18:47:48.691Z,49.62
2023-08-26T18:50:16.716Z,49.60
2023-08-26T18:52:44.450Z,49.79
2023-08-26T18:55:12.214Z,50.01
2023-08-26T18:57:40.060Z,50.16
2023-08-26T19:00:08.785Z,50.52
2023-08-26T19:02:36.865Z,50.27
2023-08-26T19:05:05.032Z,50.53
2023-08-26T19:07:32.840Z,50.66
2023-08-26T19:10:00.629Z,50.30
2023-08-26T19:12:28.381Z,50.48
2023-08-26T19:14:57.948Z,50.65
2023-08-26T19:17:25.711Z,50.69
2023-08-26T19:19:53.503Z,50.88
2023-08-26T19:22:21.289Z,51.08
2023-08-26T19:24:49.056Z,50.88
2023-08-26T19:27:18.358Z,51.01
2023-08-26T19:29:46.127Z,51.29
2023-08-26T19:32:14.284Z,51.19
2023-08-26T19:34:46.011Z,51.76
2023-08-26T19:37:13.824Z,51.50
2023-08-26T19:39:41.724Z,51.95
2023-08-26T19:42:09.470Z,51.66
2023-08-26T19:44:37.258Z,51.84
2023-08-26T19:47:05.074Z,51.72
2023-08-26T19:49:32.847Z,51.99
2023-08-26T19:52:00.621Z,52.02
2023-08-26T19:54:28.739Z,52.05
2023-08-26T19:57:09.093Z,52.32
2023-08-26T19:59:36.790Z,52.49
2023-08-26T20:02:05.838Z,52.58
2023-08-26T20:04:33.731Z,52.31
2023-08-26T20:07:01.555Z,52.60
2023-08-26T20:09:29.325Z,52.73
2023-08-26T20:11:57.084Z,52.50
2023-08-26T20:14:24.785Z,52.54
2023-08-26T20:16:52.493Z,52.56
2023-08-26T20:19:20.248Z,52.71
2023-08-26T20:21:51.112Z,52.74
2023-08-26T20:24:24.201Z,53.00
2023-08-26T20:26:52.314Z,53.32
2023-08-26T20:29:21.758Z,53.27
2023-08-26T20:31:54.068Z,53.18
2023-08-26T20:34:22.147Z,53.33
2023-08-26T20:36:50.306Z,53.77
2023-08-26T20:39:18.074Z,53.82
2023-08-26T20:41:45.985Z,54.02
2023-08-26T20:44:13.931Z,53.85
2023-08-26T20:46:41.682Z,54.13
2023-08-26T20:49:09.695Z,54.39
2023-08-26T20:51:37.484Z,54.42
2023-08-26T20:54:05.463Z,54.42
2023-08-26T20:56:33.253Z,54.64
2023-08-26T20:59:01.010Z,54.45
2023-08-26T21:01:28.894Z,54.35
2023-08-26T21:03:57.562Z,54.41
2023-08-26T21:06:25.376Z,54.76
2023-08-26T21:08:54.136Z,54.63
2023-08-26T21:11:23.322Z,55.01
2023-08-26T21:13:51.264Z,54.76
2023-08-26T21:16:19.144Z,55.16
2023-08-26T21:18:46.981Z,55.09
2023-08-26T21:21:15.428Z,55.23
2023-08-26T21:23:43.254Z,55.11
2023-08-26T21:26:11.062Z,55.28
2023-08-26T21:28:38.984Z,55.39
2023-08-26T21:31:10.144Z,55.33
2023-08-26T21:33:38.302Z,55.32
2023-08-26T21:36:06.693Z,55.87
2023-08-26T21:38:36.598Z,55.62
2023-08-26T21:41:05.983Z,55.94
2023-08-26T21:43:33.810Z,55.94
2023-08-26T21:46:01.926Z,56.12
2023-08-26T21:48:29.814Z,56.18
2023-08-26T21:50:57.912Z,56.04
2023-08-26T21:53:25.865Z,56.20
2023-08-26T21:55:53.758Z,56.11
2023-08-26T21:58:21.748Z,56.34
2023-08-26T22:00:49.577Z,55.96
2023-08-26T22:03:18.577Z,56.25
2023-08-26T22:05:46.464Z,56.13
2023-08-26T22:08:14.512Z,56.29
2023-08-26T22:10:42.342Z,56.89
2023-08-26T22:13:10.369Z,56.56
2023-08-26T22:15:43.329Z,56.59
2023-08-26T22:18:12.027Z,56.65
2023-08-26T22:20:41.382Z,56.54
2023-08-26T22:23:09.152Z,56.64
2023-08-26T22:25:37.023Z,56.79
2023-08-26T22:28:05.278Z,56.94
2023-08-26T22:30:33.197Z,56.96
2023-08-26T22:33:01.459Z,56.69
2023-08-26T22:35:29.527Z,56.91
2023-08-26T22:37:57.302Z,56.87
2023-08-26T22:40:25.123Z,56.74
2023-08-26T22:42:52.842Z,56.72
2023-08-26T22:45:20.598Z,56.65
2023-08-26T22:47:48.373Z,56.67
2023-08-26T22:50:16.135Z,56.91
2023-08-26T22:52:43.937Z,56.71
2023-08-26T22:55:11.648Z,56.57
2023-08-26T22:57:39.393Z,56.83
2023-08-26T23:00:08.554Z,56.68
2023-08-26T23:02:37.020Z,56.79
2023-08-26T23:05:06.256Z,56.82
2023-08-26T23:07:34.045Z,56.68
2023-08-26T23:10:03.886Z,57.07
2023-08-26T23:12:32.423Z,56.95
2023-08-26T23:15:00.179Z,57.26
2023-08-26T23:17:28.159Z,57.04
2023-08-26T23:19:56.038Z,57.14
2023-08-26T23:22:23.762Z,57.41
2023-08-26T23:24:51.518Z,57.58
2023-08-26T23:27:20.572Z,57.49
2023-08-26T23:29:49.493Z,57.49
2023-08-26T23:32:18.100Z,57.38
2023-08-26T23:34:46.131Z,57.44
2023-08-26T23:37:14.776Z,57.38
2023-08-26T23:39:42.594Z,57.40
2023-08-26T23:42:10.464Z,57.35
2023-08-26T23:44:40.184Z,57.33
2023-08-26T23:47:07.910Z,57.43
2023-08-26T23:49:35.649Z,57.75
2023-08-26T23:52:04.092Z,57.66
2023-08-26T23:54:31.861Z,57.72
2023-08-26T23:57:01.182Z,58.00
2023-08-26T23:59:28.899Z,57.98
